createdAt,value
2023-02-11T00:02:26.806Z,20.20
2023-02-11T00:03:36.637Z,20.18
2023-02-11T00:04:46.280Z,20.48
2023-02-11T00:07:15.789Z,19.72
2023-02-11T00:08:26.648Z,21.75
2023-02-11T00:10:46.746Z,21.18
2023-02-11T00:11:55.413Z,20.80
2023-02-11T00:13:04.479Z,21.90
2023-02-11T00:14:13.011Z,20.82
2023-02-11T00:15:21.760Z,21.05
2023-02-11T00:16:31.762Z,20.90
2023-02-11T00:18:55.610Z,20.75
2023-02-11T00:21:24.499Z,22.60
2023-02-11T00:22:34.191Z,20.85
2023-02-11T00:23:43.198Z,23.15
2023-02-11T00:24:54.535Z,22.60
2023-02-11T00:27:21.224Z,22.47
2023-02-11T00:28:31.241Z,22.55
2023-02-11T00:29:40.773Z,22.00
2023-02-11T00:30:58.281Z,20.93
2023-02-11T00:32:09.520Z,22.48
2023-02-11T00:33:19.098Z,21.37
2023-02-11T00:34:28.580Z,21.40
2023-02-11T00:35:38.197Z,21.20
2023-02-11T00:36:49.200Z,20.15
2023-02-11T00:37:58.429Z,21.15
2023-02-11T00:40:24.676Z,20.80
2023-02-11T00:41:34.086Z,21.83
2023-02-11T00:42:42.602Z,19.62
2023-02-11T00:43:52.902Z,20.70
2023-02-11T00:45:05.201Z,20.30
2023-02-11T00:46:15.492Z,20.07
2023-02-11T00:47:24.398Z,16.22
2023-02-11T00:50:08.838Z,20.70
2023-02-11T00:51:17.723Z,19.75
2023-02-11T00:52:27.114Z,21.05
2023-02-11T00:53:36.444Z,20.60
2023-02-11T00:54:45.636Z,21.24
2023-02-11T00:55:54.237Z,21.47
2023-02-11T00:57:04.324Z,22.55
2023-02-11T00:58:12.868Z,23.02
2023-02-11T00:59:22.558Z,21.75
2023-02-11T01:00:31.269Z,22.43
2023-02-11T01:01:41.263Z,21.77
2023-02-11T01:02:50.929Z,19.12
2023-02-11T01:03:59.967Z,20.67
2023-02-11T01:05:09.030Z,19.65
2023-02-11T01:06:20.979Z,19.28
2023-02-11T01:07:29.823Z,21.40
2023-02-11T01:08:39.444Z,20.07
2023-02-11T01:09:50.819Z,19.27
2023-02-11T01:11:03.526Z,18.33
2023-02-11T01:12:12.700Z,19.87
2023-02-11T01:14:39.104Z,19.13
2023-02-11T01:16:10.710Z,19.12
2023-02-11T01:17:20.412Z,18.22
2023-02-11T01:18:31.128Z,19.62
2023-02-11T01:19:42.985Z,19.08
2023-02-11T01:20:54.049Z,19.28
2023-02-11T01:22:02.763Z,18.52
2023-02-11T01:23:12.027Z,17.97
2023-02-11T01:24:21.158Z,20.22
2023-02-11T01:25:29.869Z,19.80
2023-02-11T01:26:38.683Z,19.68
2023-02-11T01:27:47.303Z,19.48
2023-02-11T01:28:56.217Z,20.63
2023-02-11T01:30:07.515Z,18.28
2023-02-11T01:31:18.422Z,18.83
2023-02-11T01:32:28.396Z,18.80
2023-02-11T01:33:37.489Z,18.82
2023-02-11T01:34:47.737Z,18.37
2023-02-11T01:36:02.290Z,18.95
2023-02-11T01:37:11.231Z,21.00
2023-02-11T01:38:25.665Z,19.38
2023-02-11T01:39:35.506Z,20.18
2023-02-11T01:40:54.803Z,19.53
2023-02-11T01:43:23.398Z,19.12
2023-02-11T01:45:59.621Z,18.58
2023-02-11T01:47:10.615Z,19.27
2023-02-11T01:49:32.644Z,18.60
2023-02-11T01:52:07.598Z,19.48
2023-02-11T01:53:36.088Z,19.80
2023-02-11T01:55:14.886Z,20.35
2023-02-11T01:56:45.673Z,20.40
2023-02-11T01:57:59.334Z,20.37
2023-02-11T02:01:53.868Z,20.50
2023-02-11T02:03:22.081Z,20.98
2023-02-11T02:04:35.440Z,20.07
2023-02-11T02:05:57.257Z,20.12
2023-02-11T02:07:12.449Z,20.37
2023-02-11T02:09:43.327Z,19.97
2023-02-11T02:10:55.829Z,19.67
2023-02-11T02:12:05.066Z,20.72
2023-02-11T02:13:14.765Z,20.46
2023-02-11T02:14:23.561Z,22.15
2023-02-11T02:15:38.109Z,21.07
2023-02-11T02:16:48.439Z,19.22
2023-02-11T02:19:33.712Z,19.25
2023-02-11T02:21:03.195Z,18.58
2023-02-11T02:22:18.863Z,20.08
2023-02-11T02:25:14.911Z,19.62
2023-02-11T02:26:55.608Z,20.82
2023-02-11T02:28:17.727Z,21.38
2023-02-11T02:29:33.376Z,23.10
2023-02-11T02:32:48.530Z,23.98
2023-02-11T02:34:04.167Z,23.97
2023-02-11T02:35:32.627Z,23.70
2023-02-11T02:36:51.324Z,24.28
2023-02-11T02:38:13.426Z,24.77
2023-02-11T02:39:26.664Z,29.25
2023-02-11T02:40:48.251Z,32.17
2023-02-11T02:41:58.671Z,30.57
2023-02-11T02:43:11.086Z,31.35
2023-02-11T02:44:20.802Z,32.42
2023-02-11T02:45:30.598Z,32.37
2023-02-11T02:46:39.764Z,31.87
2023-02-11T02:47:48.533Z,29.72
2023-02-11T02:48:59.108Z,29.27
2023-02-11T02:50:11.181Z,27.00
2023-02-11T02:51:50.003Z,26.35
2023-02-11T02:54:43.150Z,25.60
2023-02-11T02:56:01.091Z,24.53
2023-02-11T02:57:20.642Z,23.12
2023-02-11T02:58:47.216Z,23.67
2023-02-11T03:00:09.511Z,25.38
2023-02-11T03:01:37.322Z,22.78
2023-02-11T03:03:22.412Z,23.38
2023-02-11T03:04:44.080Z,23.73
2023-02-11T03:06:03.397Z,24.15
2023-02-11T03:07:18.932Z,23.85
2023-02-11T03:09:57.129Z,24.08
2023-02-11T03:11:09.313Z,24.87
2023-02-11T03:12:20.313Z,24.33
2023-02-11T03:13:33.988Z,24.95
2023-02-11T03:14:44.036Z,24.33
2023-02-11T03:15:57.837Z,23.80
2023-02-11T03:17:09.977Z,23.90
2023-02-11T03:18:21.891Z,22.82
2023-02-11T03:20:54.744Z,21.87
2023-02-11T03:22:07.578Z,21.40
2023-02-11T03:24:38.980Z,19.90
2023-02-11T03:27:26.569Z,24.00
2023-02-11T03:30:14.184Z,21.78
2023-02-11T03:31:30.392Z,22.92
2023-02-11T03:32:43.255Z,21.82
2023-02-11T03:34:17.845Z,21.98
2023-02-11T03:35:42.665Z,24.92
2023-02-11T03:36:57.539Z,22.05
2023-02-11T03:39:54.874Z,22.23
2023-02-11T03:41:12.576Z,23.62
2023-02-11T03:42:25.193Z,22.76
2023-02-11T03:43:40.414Z,23.17
2023-02-11T03:44:56.030Z,22.42
2023-02-11T03:46:07.727Z,22.25
2023-02-11T03:47:21.080Z,22.66
2023-02-11T03:48:52.453Z,22.95
2023-02-11T03:50:06.846Z,24.15
2023-02-11T03:51:17.405Z,23.27
2023-02-11T03:52:28.714Z,23.84
2023-02-11T03:53:40.093Z,25.17
2023-02-11T03:54:53.371Z,24.33
2023-02-11T03:56:07.112Z,24.60
2023-02-11T03:57:17.760Z,23.75
2023-02-11T03:58:27.345Z,25.33
2023-02-11T03:59:57.915Z,27.18
2023-02-11T04:01:09.625Z,24.45
2023-02-11T04:02:19.873Z,23.37
2023-02-11T04:03:28.686Z,19.63
2023-02-11T04:04:37.760Z,22.70
2023-02-11T04:07:08.164Z,23.13
2023-02-11T04:08:17.701Z,22.95
2023-02-11T04:09:26.793Z,23.90
2023-02-11T04:10:37.172Z,23.95
2023-02-11T04:11:45.708Z,24.00
2023-02-11T04:12:54.658Z,24.20
2023-02-11T04:14:04.782Z,24.74
2023-02-11T04:15:13.829Z,23.27
2023-02-11T04:17:39.469Z,24.95
2023-02-11T04:18:48.479Z,22.87
2023-02-11T04:19:58.164Z,23.00
2023-02-11T04:21:06.914Z,24.30
2023-02-11T04:22:16.724Z,24.50
2023-02-11T04:23:26.399Z,24.63
2023-02-11T04:24:36.536Z,26.23
2023-02-11T04:25:46.186Z,26.60
2023-02-11T04:26:55.945Z,26.43
2023-02-11T04:28:06.863Z,28.40
2023-02-11T04:30:28.570Z,28.30
2023-02-11T04:31:38.389Z,30.17
2023-02-11T04:32:47.195Z,32.43
2023-02-11T04:33:56.440Z,31.35
2023-02-11T04:35:06.278Z,30.63
2023-02-11T04:37:31.064Z,32.48
2023-02-11T04:38:41.128Z,31.85
2023-02-11T04:39:50.877Z,31.62
2023-02-11T04:41:00.581Z,25.96
2023-02-11T04:42:09.736Z,29.58
2023-02-11T04:43:18.822Z,30.97
2023-02-11T04:45:42.613Z,31.95
2023-02-11T04:46:52.102Z,30.35
2023-02-11T04:48:04.960Z,27.95
2023-02-11T04:49:15.412Z,26.67
2023-02-11T04:50:25.346Z,26.92
2023-02-11T04:51:34.463Z,24.02
2023-02-11T04:52:43.546Z,23.65
2023-02-11T04:53:52.641Z,22.78
2023-02-11T04:55:02.433Z,21.88
2023-02-11T04:56:12.478Z,21.28
2023-02-11T04:57:21.103Z,21.25
2023-02-11T04:58:31.085Z,21.15
2023-02-11T05:00:56.459Z,20.23
2023-02-11T05:02:07.252Z,20.17
2023-02-11T05:03:16.827Z,19.57
2023-02-11T05:04:26.131Z,21.65
2023-02-11T05:05:40.922Z,21.93
2023-02-11T05:06:49.726Z,22.82
2023-02-11T05:07:59.449Z,21.87
2023-02-11T05:09:10.165Z,22.40
2023-02-11T05:10:20.064Z,22.65
2023-02-11T05:11:28.840Z,23.65
2023-02-11T05:12:38.385Z,22.43
2023-02-11T05:13:47.641Z,23.28
2023-02-11T05:14:57.237Z,24.02
2023-02-11T05:16:07.436Z,23.22
2023-02-11T05:17:17.105Z,25.75
2023-02-11T05:18:26.777Z,49.37
2023-02-11T05:19:39.259Z,27.15
2023-02-11T05:20:48.873Z,24.50
2023-02-11T05:22:03.121Z,24.68
2023-02-11T05:23:09.963Z,24.18
2023-02-11T05:24:19.719Z,23.77
2023-02-11T05:25:28.349Z,24.58
2023-02-11T05:26:38.048Z,23.67
2023-02-11T05:27:47.811Z,23.33
2023-02-11T05:29:01.229Z,24.25
2023-02-11T05:30:11.178Z,24.18
2023-02-11T05:31:20.234Z,24.45
2023-02-11T05:32:31.559Z,23.30
2023-02-11T05:33:41.155Z,24.90
2023-02-11T05:36:09.104Z,24.72
2023-02-11T05:37:17.949Z,23.90
2023-02-11T05:38:27.443Z,24.18
2023-02-11T05:39:38.105Z,23.70
2023-02-11T05:41:57.278Z,23.23
2023-02-11T05:43:08.069Z,24.40
2023-02-11T05:45:31.692Z,22.32
2023-02-11T05:46:41.057Z,23.93
2023-02-11T05:47:50.281Z,25.68
2023-02-11T05:48:59.539Z,23.95
2023-02-11T05:50:09.557Z,24.27
2023-02-11T05:51:18.666Z,24.33
2023-02-11T05:52:27.276Z,23.60
2023-02-11T05:53:36.316Z,25.05
2023-02-11T05:54:45.679Z,23.35
2023-02-11T05:55:55.331Z,23.93
2023-02-11T05:58:19.483Z,23.00
2023-02-11T05:59:28.734Z,24.90
2023-02-11T06:00:37.885Z,24.63
2023-02-11T06:01:46.665Z,26.13
2023-02-11T06:02:55.943Z,25.60
2023-02-11T06:04:04.956Z,26.27
2023-02-11T06:05:14.945Z,25.50
2023-02-11T06:06:25.818Z,25.45
2023-02-11T06:07:34.434Z,25.50
2023-02-11T06:09:58.942Z,25.70
2023-02-11T06:11:08.945Z,27.17
2023-02-11T06:12:19.211Z,26.43
2023-02-11T06:13:28.277Z,26.72
2023-02-11T06:14:37.965Z,27.53
2023-02-11T06:15:58.107Z,26.90
2023-02-11T06:17:07.262Z,27.30
2023-02-11T06:18:17.192Z,27.77
2023-02-11T06:19:27.576Z,26.80
2023-02-11T06:20:40.231Z,27.52
2023-02-11T06:21:49.437Z,27.90
2023-02-11T06:22:57.995Z,26.65
2023-02-11T06:24:08.274Z,29.00
2023-02-11T06:25:17.938Z,26.95
2023-02-11T06:26:26.587Z,26.57
2023-02-11T06:27:35.154Z,26.40
2023-02-11T06:28:45.822Z,26.73
2023-02-11T06:29:56.444Z,26.50
2023-02-11T06:31:07.134Z,25.52
2023-02-11T06:32:36.993Z,25.63
2023-02-11T06:33:27.632Z,24.55
2023-02-11T06:34:36.889Z,25.25
2023-02-11T06:35:45.895Z,24.55
2023-02-11T06:36:55.258Z,25.40
2023-02-11T06:38:05.315Z,25.75
2023-02-11T06:39:14.990Z,25.50
2023-02-11T06:41:44.495Z,26.18
2023-02-11T06:42:52.996Z,26.83
2023-02-11T06:44:01.651Z,28.43
2023-02-11T06:45:13.068Z,27.53
2023-02-11T06:46:23.593Z,27.40
2023-02-11T06:47:32.324Z,26.60
2023-02-11T06:48:50.801Z,25.10
2023-02-11T06:50:00.491Z,25.52
2023-02-11T06:51:12.726Z,27.70
2023-02-11T06:52:21.383Z,36.57
2023-02-11T06:53:31.334Z,27.28
2023-02-11T06:54:39.857Z,25.53
2023-02-11T06:55:48.796Z,24.34
2023-02-11T06:56:59.002Z,23.38
2023-02-11T06:59:22.483Z,24.57
2023-02-11T07:00:31.311Z,22.97
2023-02-11T07:01:40.331Z,22.70
2023-02-11T07:04:04.331Z,24.48
2023-02-11T07:05:12.840Z,23.67
2023-02-11T07:06:27.109Z,24.12
2023-02-11T07:07:37.455Z,23.23
2023-02-11T07:08:48.164Z,23.80
2023-02-11T07:11:14.727Z,24.13
2023-02-11T07:12:24.130Z,23.45
2023-02-11T07:13:33.758Z,22.40
2023-02-11T07:14:42.631Z,22.80
2023-02-11T07:15:52.623Z,23.30
2023-02-11T07:17:05.366Z,22.10
2023-02-11T07:18:15.007Z,25.03
2023-02-11T07:19:24.640Z,23.80
2023-02-11T07:20:33.739Z,24.10
2023-02-11T07:21:42.447Z,22.85
2023-02-11T07:22:51.850Z,23.90
2023-02-11T07:24:02.035Z,23.65
2023-02-11T07:25:12.749Z,24.43
2023-02-11T07:26:23.512Z,22.77
2023-02-11T07:27:32.179Z,21.85
2023-02-11T07:28:41.894Z,23.02
2023-02-11T07:29:51.412Z,21.77
2023-02-11T07:32:29.488Z,22.67
2023-02-11T07:33:40.353Z,21.45
2023-02-11T07:36:01.286Z,20.03
2023-02-11T07:37:10.393Z,21.60
2023-02-11T07:38:19.411Z,21.12
2023-02-11T07:39:29.049Z,22.57
2023-02-11T07:40:37.831Z,22.50
2023-02-11T07:43:03.443Z,22.67
2023-02-11T07:44:11.949Z,23.40
2023-02-11T07:45:20.715Z,21.87
2023-02-11T07:46:30.868Z,23.55
2023-02-11T07:47:41.699Z,23.35
2023-02-11T07:48:51.034Z,23.56
2023-02-11T07:50:00.655Z,22.67
2023-02-11T07:51:25.756Z,22.92
2023-02-11T07:52:34.491Z,22.27
2023-02-11T07:53:44.273Z,23.68
2023-02-11T07:56:10.983Z,23.05
2023-02-11T07:58:34.729Z,22.35
2023-02-11T07:59:43.308Z,22.98
2023-02-11T08:00:52.265Z,21.35
2023-02-11T08:03:15.639Z,22.07
2023-02-11T08:04:24.671Z,22.84
2023-02-11T08:05:34.232Z,22.02
2023-02-11T08:06:44.203Z,22.22
2023-02-11T08:07:54.447Z,22.33
2023-02-11T08:09:07.025Z,23.00
2023-02-11T08:10:16.823Z,23.58
2023-02-11T08:11:29.061Z,23.80
2023-02-11T08:12:37.563Z,24.03
2023-02-11T08:13:46.875Z,22.43
2023-02-11T08:14:55.841Z,23.42
2023-02-11T08:16:05.772Z,23.97
2023-02-11T08:17:15.470Z,24.42
2023-02-11T08:18:24.484Z,23.85
2023-02-11T08:19:35.163Z,23.80
2023-02-11T08:22:00.568Z,23.78
2023-02-11T08:23:09.546Z,25.25
2023-02-11T08:24:19.112Z,24.07
2023-02-11T08:25:28.366Z,23.60
2023-02-11T08:26:37.431Z,24.37
2023-02-11T08:27:46.538Z,26.50
2023-02-11T08:28:56.815Z,26.07
2023-02-11T08:30:06.853Z,25.00
2023-02-11T08:31:18.673Z,25.70
2023-02-11T08:32:27.627Z,27.05
2023-02-11T08:34:52.712Z,26.95
2023-02-11T08:36:03.409Z,28.60
2023-02-11T08:37:12.802Z,27.85
2023-02-11T08:38:21.310Z,26.68
2023-02-11T08:39:30.450Z,28.18
2023-02-11T08:40:40.180Z,28.82
2023-02-11T08:41:51.983Z,27.73
2023-02-11T08:43:01.591Z,27.33
2023-02-11T08:44:12.015Z,27.34
2023-02-11T08:45:20.628Z,27.50
2023-02-11T08:46:30.460Z,27.98
2023-02-11T08:48:56.305Z,27.58
2023-02-11T08:50:06.187Z,26.90
2023-02-11T08:52:34.928Z,26.53
2023-02-11T08:53:45.749Z,26.60
2023-02-11T08:54:55.462Z,27.13
2023-02-11T08:57:21.003Z,27.25
2023-02-11T08:58:29.678Z,27.25
2023-02-11T08:59:40.615Z,27.37
2023-02-11T09:00:50.579Z,26.68
2023-02-11T09:03:26.001Z,28.17
2023-02-11T09:04:37.952Z,28.65
2023-02-11T09:07:07.378Z,26.77
2023-02-11T09:08:18.710Z,26.22
2023-02-11T09:09:28.938Z,26.65
2023-02-11T09:10:38.921Z,26.10
2023-02-11T09:11:47.793Z,27.40
2023-02-11T09:12:56.500Z,27.23
2023-02-11T09:14:05.235Z,26.65
2023-02-11T09:15:15.754Z,26.32
2023-02-11T09:16:30.995Z,27.15
2023-02-11T09:17:39.897Z,27.27
2023-02-11T09:18:49.064Z,28.38
2023-02-11T09:19:58.224Z,27.03
2023-02-11T09:21:10.228Z,103.60
2023-02-11T09:22:21.297Z,39.18
2023-02-11T09:23:30.437Z,29.92
2023-02-11T09:24:41.378Z,27.05
2023-02-11T09:25:50.920Z,27.07
2023-02-11T09:27:00.144Z,26.58
2023-02-11T09:28:09.542Z,27.82
2023-02-11T09:29:18.955Z,27.77
2023-02-11T09:30:28.346Z,26.87
2023-02-11T09:31:38.603Z,26.62
2023-02-11T09:32:48.810Z,26.40
2023-02-11T09:34:04.209Z,29.18
2023-02-11T09:35:15.917Z,28.70
2023-02-11T09:36:28.534Z,28.00
2023-02-11T09:37:37.603Z,26.37
2023-02-11T09:38:48.500Z,27.52
2023-02-11T09:42:45.796Z,27.15
2023-02-11T09:45:17.424Z,26.58
2023-02-11T09:49:48.482Z,28.72
2023-02-11T09:52:33.819Z,27.35
2023-02-11T09:53:44.944Z,27.90
2023-02-11T09:55:03.093Z,27.85
2023-02-11T09:56:15.012Z,26.75
2023-02-11T09:58:45.546Z,29.03
2023-02-11T09:59:55.635Z,27.58
2023-02-11T10:01:23.399Z,27.40
2023-02-11T10:04:17.117Z,28.17
2023-02-11T10:07:26.498Z,25.53
2023-02-11T10:08:58.626Z,28.90
2023-02-11T10:10:15.055Z,27.80
2023-02-11T10:11:42.518Z,28.57
2023-02-11T10:13:01.005Z,27.73
2023-02-11T10:15:50.406Z,28.22
2023-02-11T10:17:38.406Z,27.70
2023-02-11T10:19:13.446Z,28.92
2023-02-11T10:20:38.594Z,27.50
2023-02-11T10:22:00.274Z,27.68
2023-02-11T10:23:25.383Z,28.25
2023-02-11T10:24:35.407Z,27.83
2023-02-11T10:25:56.925Z,28.37
2023-02-11T10:28:34.470Z,28.43
2023-02-11T10:29:47.352Z,27.15
2023-02-11T10:31:06.504Z,28.03
2023-02-11T10:32:27.594Z,29.48
2023-02-11T10:34:01.925Z,28.43
2023-02-11T10:35:15.525Z,28.88
2023-02-11T10:36:28.492Z,28.47
2023-02-11T10:37:38.032Z,29.40
2023-02-11T10:38:47.568Z,65.58
2023-02-11T10:39:56.884Z,32.35
2023-02-11T10:41:09.416Z,42.55
2023-02-11T10:42:18.526Z,55.42
2023-02-11T10:43:30.968Z,57.92
2023-02-11T10:45:00.675Z,39.65
2023-02-11T10:46:19.493Z,32.95
2023-02-11T10:48:52.427Z,28.42
2023-02-11T10:50:03.306Z,27.38
2023-02-11T10:52:30.627Z,27.40
2023-02-11T10:53:39.435Z,28.05
2023-02-11T10:55:03.995Z,27.98
2023-02-11T10:56:28.474Z,29.07
2023-02-11T10:57:42.082Z,27.80
2023-02-11T11:00:41.088Z,26.92
2023-02-11T11:03:20.522Z,30.23
2023-02-11T11:04:41.886Z,28.10
2023-02-11T11:06:01.323Z,28.65
2023-02-11T11:07:19.459Z,27.87
2023-02-11T11:10:09.712Z,27.97
2023-02-11T11:11:24.891Z,28.43
2023-02-11T11:12:46.701Z,29.02
2023-02-11T11:15:22.275Z,24.22
2023-02-11T11:18:20.980Z,25.60
2023-02-11T11:19:24.381Z,25.72
2023-02-11T11:20:35.478Z,25.70
2023-02-11T11:23:21.075Z,28.67
2023-02-11T11:24:34.200Z,27.58
2023-02-11T11:27:03.961Z,26.70
2023-02-11T11:28:26.767Z,30.38
2023-02-11T11:30:59.165Z,32.37
2023-02-11T11:34:57.011Z,28.53
2023-02-11T11:36:10.522Z,29.55
2023-02-11T11:37:23.790Z,30.22
2023-02-11T11:38:36.476Z,29.97
2023-02-11T11:41:22.682Z,29.32
2023-02-11T11:42:55.438Z,29.07
2023-02-11T11:44:26.733Z,28.90
2023-02-11T11:45:37.676Z,31.07
2023-02-11T11:48:19.876Z,30.40
2023-02-11T11:52:22.311Z,27.83
2023-02-11T11:53:44.019Z,29.37
2023-02-11T11:55:08.432Z,28.55
2023-02-11T11:57:39.981Z,31.33
2023-02-11T12:00:07.532Z,28.75
2023-02-11T12:01:53.701Z,29.40
2023-02-11T12:04:27.438Z,29.25
2023-02-11T12:06:00.314Z,28.30
2023-02-11T12:07:26.021Z,30.80
2023-02-11T12:08:51.427Z,28.70
2023-02-11T12:10:29.564Z,29.03
2023-02-11T12:12:07.977Z,29.10
2023-02-11T12:13:29.537Z,28.03
2023-02-11T12:15:01.872Z,29.88
2023-02-11T12:16:23.748Z,27.08
2023-02-11T12:17:58.723Z,27.72
2023-02-11T12:21:05.946Z,27.63
2023-02-11T12:22:35.407Z,26.98
2023-02-11T12:23:58.062Z,28.35
2023-02-11T12:26:39.051Z,28.73
2023-02-11T12:29:22.499Z,28.55
2023-02-11T12:30:50.587Z,29.20
2023-02-11T12:33:51.743Z,30.38
2023-02-11T12:37:02.539Z,30.97
2023-02-11T12:39:57.975Z,31.40
2023-02-11T12:43:16.537Z,30.22
2023-02-11T12:46:11.474Z,33.33
2023-02-11T12:49:33.110Z,29.32
2023-02-11T12:52:37.750Z,30.20
2023-02-11T12:54:16.782Z,31.00
2023-02-11T12:55:34.182Z,28.63
2023-02-11T12:56:50.410Z,29.30
2023-02-11T12:58:01.753Z,25.40
2023-02-11T12:59:15.093Z,26.18
2023-02-11T13:00:46.877Z,26.02
2023-02-11T13:01:57.693Z,26.07
2023-02-11T13:03:19.581Z,27.53
2023-02-11T13:05:57.941Z,27.40
2023-02-11T13:07:13.565Z,27.68
2023-02-11T13:10:17.487Z,28.78
2023-02-11T13:11:30.742Z,28.67
2023-02-11T13:13:04.195Z,29.45
2023-02-11T13:14:22.748Z,28.52
2023-02-11T13:15:33.108Z,29.77
2023-02-11T13:16:48.664Z,27.48
2023-02-11T13:19:43.178Z,27.55
2023-02-11T13:21:01.731Z,25.50
2023-02-11T13:22:14.040Z,26.75
2023-02-11T13:24:54.869Z,25.93
2023-02-11T13:26:25.719Z,25.98
2023-02-11T13:27:44.065Z,26.05
2023-02-11T13:28:57.131Z,27.30
2023-02-11T13:31:31.965Z,26.53
2023-02-11T13:33:02.826Z,26.70
2023-02-11T13:34:26.572Z,26.32
2023-02-11T13:36:57.584Z,26.37
2023-02-11T13:40:47.668Z,31.78
2023-02-11T13:42:03.832Z,56.20
2023-02-11T13:43:23.280Z,25.72
2023-02-11T13:44:34.671Z,24.83
2023-02-11T13:45:47.168Z,23.92
2023-02-11T13:48:24.988Z,23.65
2023-02-11T13:49:42.289Z,23.88
2023-02-11T13:50:57.938Z,23.90
2023-02-11T13:52:19.191Z,25.23
2023-02-11T13:53:29.198Z,24.35
2023-02-11T13:54:39.712Z,22.08
2023-02-11T13:55:52.129Z,22.60
2023-02-11T13:57:21.210Z,23.42
2023-02-11T13:58:35.429Z,23.00
2023-02-11T13:59:49.503Z,22.87
2023-02-11T14:00:59.431Z,23.65
2023-02-11T14:02:45.977Z,22.52
2023-02-11T14:06:37.503Z,22.82
2023-02-11T14:08:30.552Z,23.85
2023-02-11T14:09:40.445Z,23.90
2023-02-11T14:10:51.798Z,24.50
2023-02-11T14:12:27.523Z,24.37
2023-02-11T14:13:39.269Z,22.52
2023-02-11T14:15:10.249Z,25.15
2023-02-11T14:16:35.593Z,25.32
2023-02-11T14:17:34.705Z,24.02
2023-02-11T14:18:54.149Z,24.52
2023-02-11T14:21:32.509Z,23.50
2023-02-11T14:22:46.564Z,24.37
2023-02-11T14:24:07.630Z,22.63
2023-02-11T14:25:20.041Z,21.73
2023-02-11T14:27:55.421Z,21.42
2023-02-11T14:35:02.457Z,20.07
2023-02-11T14:36:36.461Z,20.75
2023-02-11T14:37:53.150Z,20.50
2023-02-11T14:39:06.533Z,21.00
2023-02-11T14:41:48.431Z,21.32
2023-02-11T14:44:19.772Z,21.22
2023-02-11T14:45:31.095Z,23.32
2023-02-11T14:48:16.634Z,24.77
2023-02-11T14:49:38.640Z,25.08
2023-02-11T14:52:18.824Z,26.65
2023-02-11T14:53:32.788Z,23.60
2023-02-11T14:54:44.381Z,23.40
2023-02-11T14:55:55.064Z,22.57
2023-02-11T15:00:09.161Z,19.47
2023-02-11T15:01:34.659Z,18.43
2023-02-11T15:02:45.014Z,17.43
2023-02-11T15:03:56.027Z,16.35
2023-02-11T15:05:26.696Z,14.15
2023-02-11T15:06:45.304Z,15.22
2023-02-11T15:08:00.512Z,15.57
2023-02-11T15:09:43.824Z,13.93
2023-02-11T15:10:54.738Z,14.43
2023-02-11T15:13:22.504Z,14.40
2023-02-11T15:14:34.559Z,15.23
2023-02-11T15:15:46.042Z,15.58
2023-02-11T15:16:58.594Z,16.18
2023-02-11T15:18:10.072Z,17.03
2023-02-11T15:19:34.125Z,16.47
2023-02-11T15:20:42.431Z,15.82
2023-02-11T15:21:52.862Z,15.97
2023-02-11T15:23:05.433Z,15.15
2023-02-11T15:24:28.355Z,15.80
2023-02-11T15:25:44.454Z,15.47
2023-02-11T15:27:03.642Z,14.78
2023-02-11T15:28:24.843Z,15.10
2023-02-11T15:29:40.133Z,14.50
2023-02-11T15:31:04.560Z,14.40
2023-02-11T15:32:20.276Z,13.72
2023-02-11T15:33:31.957Z,13.37
2023-02-11T15:34:42.581Z,14.32
2023-02-11T15:35:51.425Z,13.97
2023-02-11T15:37:02.081Z,13.08
2023-02-11T15:39:36.274Z,13.95
2023-02-11T15:40:57.944Z,14.25
2023-02-11T15:42:26.823Z,13.67
2023-02-11T15:43:47.345Z,13.23
2023-02-11T15:45:17.641Z,13.70
2023-02-11T15:47:52.641Z,14.02
2023-02-11T15:50:26.398Z,14.05
2023-02-11T15:51:37.321Z,13.72
2023-02-11T15:53:59.000Z,14.20
2023-02-11T15:56:44.258Z,13.25
2023-02-11T15:57:59.342Z,13.65
2023-02-11T15:59:20.531Z,15.12
2023-02-11T16:00:34.706Z,14.45
2023-02-11T16:01:46.130Z,14.52
2023-02-11T16:02:55.926Z,14.97
2023-02-11T16:04:05.188Z,13.33
2023-02-11T16:06:50.392Z,14.57
2023-02-11T16:08:01.009Z,16.17
2023-02-11T16:09:13.805Z,15.40
2023-02-11T16:11:52.139Z,14.52
2023-02-11T16:13:08.171Z,15.77
2023-02-11T16:14:33.402Z,15.18
2023-02-11T16:18:45.240Z,15.63
2023-02-11T16:19:54.108Z,17.00
2023-02-11T16:21:04.570Z,16.98
2023-02-11T16:23:41.309Z,16.68
2023-02-11T16:24:52.666Z,17.42
2023-02-11T16:26:07.230Z,17.96
2023-02-11T16:28:46.523Z,16.52
2023-02-11T16:29:56.454Z,15.78
2023-02-11T16:31:06.646Z,16.88
2023-02-11T16:32:22.035Z,17.50
2023-02-11T16:33:31.068Z,19.05
2023-02-11T16:34:40.056Z,17.88
2023-02-11T16:35:48.999Z,17.50
2023-02-11T16:38:14.012Z,17.45
2023-02-11T16:39:23.654Z,18.85
2023-02-11T16:41:50.335Z,19.30
2023-02-11T16:42:59.574Z,17.65
2023-02-11T16:44:08.436Z,18.90
2023-02-11T16:45:17.248Z,18.17
2023-02-11T16:46:27.532Z,17.78
2023-02-11T16:47:38.999Z,18.20
2023-02-11T16:48:47.806Z,17.66
2023-02-11T16:49:58.247Z,18.10
2023-02-11T16:51:10.910Z,19.45
2023-02-11T16:52:21.792Z,18.40
2023-02-11T16:54:40.169Z,18.45
2023-02-11T16:57:20.097Z,16.90
2023-02-11T16:58:28.616Z,17.47
2023-02-11T16:59:37.117Z,19.27
2023-02-11T17:00:49.113Z,18.62
2023-02-11T17:01:58.454Z,19.43
2023-02-11T17:03:09.218Z,18.23
2023-02-11T17:04:31.141Z,18.73
2023-02-11T17:05:54.663Z,17.05
2023-02-11T17:06:52.204Z,18.97
2023-02-11T17:09:30.354Z,18.90
2023-02-11T17:10:38.272Z,19.72
2023-02-11T17:11:48.321Z,20.18
2023-02-11T17:12:57.471Z,18.18
2023-02-11T17:14:06.337Z,19.33
2023-02-11T17:15:16.180Z,17.92
2023-02-11T17:16:27.241Z,18.95
2023-02-11T17:17:36.649Z,19.00
2023-02-11T17:18:49.045Z,19.30
2023-02-11T17:19:58.064Z,19.08
2023-02-11T17:21:07.899Z,18.52
2023-02-11T17:23:32.182Z,18.33
2023-02-11T17:24:41.296Z,17.85
2023-02-11T17:25:56.395Z,18.35
2023-02-11T17:27:05.803Z,18.12
2023-02-11T17:28:14.365Z,21.22
2023-02-11T17:29:25.076Z,24.55
2023-02-11T17:31:43.372Z,24.33
2023-02-11T17:32:52.380Z,20.77
2023-02-11T17:34:02.821Z,18.78
2023-02-11T17:35:12.351Z,18.12
2023-02-11T17:36:22.550Z,17.58
2023-02-11T17:37:32.157Z,16.65
2023-02-11T17:38:43.008Z,18.90
2023-02-11T17:41:03.679Z,17.35
2023-02-11T17:42:14.080Z,17.12
2023-02-11T17:44:38.898Z,17.93
2023-02-11T17:47:03.482Z,17.82
2023-02-11T17:48:12.106Z,17.68
2023-02-11T17:49:20.652Z,16.83
2023-02-11T17:50:30.686Z,16.92
2023-02-11T17:52:54.986Z,17.48
2023-02-11T17:55:24.732Z,16.20
2023-02-11T17:56:36.403Z,17.30
2023-02-11T17:57:46.028Z,15.78
2023-02-11T17:58:55.129Z,26.33
2023-02-11T18:00:06.341Z,17.30
2023-02-11T18:01:17.794Z,18.25
2023-02-11T18:02:27.710Z,17.73
2023-02-11T18:03:36.806Z,17.30
2023-02-11T18:04:46.362Z,17.15
2023-02-11T18:07:15.033Z,18.50
2023-02-11T18:08:24.099Z,18.95
2023-02-11T18:09:39.014Z,16.47
2023-02-11T18:10:48.769Z,16.97
2023-02-11T18:11:58.085Z,17.08
2023-02-11T18:13:07.496Z,18.12
2023-02-11T18:14:16.175Z,18.17
2023-02-11T18:15:24.908Z,18.52
2023-02-11T18:16:36.843Z,18.05
2023-02-11T18:17:47.369Z,18.28
2023-02-11T18:18:57.968Z,18.30
2023-02-11T18:20:09.195Z,18.13
2023-02-11T18:21:20.537Z,17.45
2023-02-11T18:22:32.059Z,17.27
2023-02-11T18:23:41.076Z,17.58
2023-02-11T18:26:12.804Z,16.62
2023-02-11T18:27:22.322Z,18.20
2023-02-11T18:28:31.035Z,16.28
2023-02-11T18:29:40.054Z,16.60
2023-02-11T18:32:14.602Z,17.23
2023-02-11T18:33:24.170Z,18.95
2023-02-11T18:34:33.230Z,17.87
2023-02-11T18:35:42.480Z,17.25
2023-02-11T18:36:51.517Z,16.38
2023-02-11T18:38:00.933Z,18.10
2023-02-11T18:39:10.170Z,18.10
2023-02-11T18:40:20.727Z,18.50
2023-02-11T18:42:46.965Z,17.92
2023-02-11T18:43:58.327Z,17.90
2023-02-11T18:45:09.759Z,17.83
2023-02-11T18:46:20.962Z,18.20
2023-02-11T18:47:33.228Z,17.40
2023-02-11T18:48:47.042Z,17.38
2023-02-11T18:49:55.665Z,17.28
2023-02-11T18:51:14.899Z,18.32
2023-02-11T18:52:23.643Z,16.90
2023-02-11T18:53:32.927Z,18.47
2023-02-11T18:54:41.992Z,17.90
2023-02-11T18:55:51.422Z,18.08
2023-02-11T18:57:03.848Z,18.33
2023-02-11T18:58:13.755Z,17.38
2023-02-11T18:59:23.150Z,17.35
2023-02-11T19:00:33.063Z,19.60
2023-02-11T19:01:43.912Z,20.15
2023-02-11T19:04:04.423Z,19.88
2023-02-11T19:05:15.459Z,19.70
2023-02-11T19:07:43.267Z,21.33
2023-02-11T19:08:53.304Z,19.20